createdAt,value
2022-10-23T00:01:33.322Z,9.20
2022-10-23T00:03:36.436Z,9.30
2022-10-23T00:05:40.382Z,9.03
2022-10-23T00:07:43.061Z,9.37
2022-10-23T00:09:45.769Z,9.70
2022-10-23T00:11:49.912Z,9.73
2022-10-23T00:13:53.803Z,9.67
2022-10-23T00:15:56.688Z,9.23
2022-10-23T00:18:00.959Z,9.20
2022-10-23T00:20:03.929Z,8.80
2022-10-23T00:22:09.017Z,9.57
2022-10-23T00:24:12.041Z,8.53
2022-10-23T00:26:16.840Z,9.20
2022-10-23T00:28:19.461Z,9.30
2022-10-23T00:30:22.893Z,9.57
2022-10-23T00:32:26.306Z,9.10
2022-10-23T00:34:30.600Z,8.67
2022-10-23T00:36:33.227Z,8.83
2022-10-23T00:38:35.903Z,8.13
2022-10-23T00:40:39.424Z,8.43
2022-10-23T00:42:42.455Z,8.50
2022-10-23T00:45:09.421Z,9.30
2022-10-23T00:47:12.763Z,9.10
2022-10-23T00:49:16.369Z,8.90
2022-10-23T00:51:20.686Z,9.03
2022-10-23T00:53:23.448Z,7.93
2022-10-23T00:55:26.254Z,9.20
2022-10-23T00:59:31.968Z,8.40
2022-10-23T01:01:34.849Z,8.63
2022-10-23T01:03:37.523Z,8.07
2022-10-23T01:05:45.771Z,8.47
2022-10-23T01:07:52.050Z,8.53
2022-10-23T01:09:56.672Z,8.40
2022-10-23T01:12:00.987Z,7.50
2022-10-23T01:14:06.245Z,8.93
2022-10-23T01:16:11.738Z,8.90
2022-10-23T01:18:17.519Z,8.30
2022-10-23T01:20:26.823Z,8.60
2022-10-23T01:22:39.256Z,8.40
2022-10-23T01:24:47.230Z,8.17
2022-10-23T01:26:56.914Z,7.63
2022-10-23T01:29:03.074Z,8.90
2022-10-23T01:31:06.854Z,7.60
2022-10-23T01:33:11.022Z,8.07
2022-10-23T01:35:15.111Z,7.70
2022-10-23T01:37:21.085Z,8.57
2022-10-23T01:39:25.471Z,8.27
2022-10-23T01:41:30.597Z,8.07
2022-10-23T01:43:37.004Z,8.17
2022-10-23T01:45:42.011Z,9.40
2022-10-23T01:47:45.105Z,7.73
2022-10-23T01:49:47.957Z,8.10
2022-10-23T01:51:52.684Z,8.10
2022-10-23T01:53:56.852Z,7.83
2022-10-23T01:55:59.559Z,7.33
2022-10-23T01:58:02.333Z,7.10
2022-10-23T02:00:08.020Z,7.50
2022-10-23T02:02:12.377Z,7.43
2022-10-23T02:04:16.653Z,7.47
2022-10-23T02:06:19.309Z,7.50
2022-10-23T02:08:22.414Z,7.97
2022-10-23T02:10:25.189Z,7.00
2022-10-23T02:12:30.319Z,7.80
2022-10-23T02:14:38.353Z,7.40
2022-10-23T02:16:42.427Z,6.97
2022-10-23T02:18:47.668Z,7.10
2022-10-23T02:20:54.341Z,7.33
2022-10-23T02:23:00.440Z,7.40
2022-10-23T02:25:06.632Z,7.10
2022-10-23T02:27:11.153Z,7.60
2022-10-23T02:29:15.778Z,7.40
2022-10-23T02:31:19.585Z,7.50
2022-10-23T02:33:22.633Z,7.87
2022-10-23T02:35:26.549Z,7.30
2022-10-23T02:37:29.196Z,6.70
2022-10-23T02:39:31.826Z,6.00
2022-10-23T02:41:39.625Z,6.60
2022-10-23T02:43:44.462Z,7.10
2022-10-23T02:45:49.423Z,6.83
2022-10-23T02:47:54.244Z,7.20
2022-10-23T02:50:00.427Z,7.17
2022-10-23T02:52:08.954Z,6.90
2022-10-23T02:54:14.451Z,6.70
2022-10-23T02:56:20.808Z,6.57
2022-10-23T02:58:27.873Z,6.03
2022-10-23T03:00:30.884Z,6.27
2022-10-23T03:02:37.568Z,6.00
2022-10-23T03:04:40.668Z,6.30
2022-10-23T03:06:43.298Z,6.53
2022-10-23T03:08:51.348Z,6.00
2022-10-23T03:10:54.014Z,6.67
2022-10-23T03:12:57.124Z,7.33
2022-10-23T03:14:59.769Z,7.00
2022-10-23T03:17:02.368Z,6.30
2022-10-23T03:19:05.095Z,6.77
2022-10-23T03:21:08.490Z,6.43
2022-10-23T03:23:12.946Z,6.23
2022-10-23T03:25:17.037Z,6.70
2022-10-23T03:27:19.782Z,6.23
2022-10-23T03:29:22.823Z,5.97
2022-10-23T03:31:25.462Z,6.37
2022-10-23T03:33:29.977Z,6.93
2022-10-23T03:35:32.616Z,5.77
2022-10-23T03:37:38.120Z,6.50
2022-10-23T03:39:41.774Z,5.73
2022-10-23T03:41:48.118Z,5.60
2022-10-23T03:43:50.785Z,6.50
2022-10-23T03:45:53.858Z,6.03
2022-10-23T03:47:56.494Z,6.10
2022-10-23T03:49:59.439Z,6.27
2022-10-23T03:52:02.070Z,6.10
2022-10-23T03:54:04.829Z,5.67
2022-10-23T03:56:07.871Z,6.00
2022-10-23T03:58:11.888Z,6.00
2022-10-23T04:00:15.074Z,5.50
2022-10-23T04:02:17.884Z,6.10
2022-10-23T04:04:20.609Z,5.50
2022-10-23T04:06:23.250Z,5.90
2022-10-23T04:08:26.504Z,5.47
2022-10-23T04:10:29.174Z,5.57
2022-10-23T04:12:31.794Z,5.20
2022-10-23T04:14:35.760Z,6.13
2022-10-23T04:16:39.103Z,5.53
2022-10-23T04:18:41.792Z,5.60
2022-10-23T04:20:44.481Z,5.60
2022-10-23T04:22:47.129Z,5.90
2022-10-23T04:24:50.082Z,5.40
2022-10-23T04:26:52.755Z,5.73
2022-10-23T04:28:55.448Z,5.57
2022-10-23T04:30:59.405Z,6.00
2022-10-23T04:33:02.421Z,5.90
2022-10-23T04:35:05.517Z,5.00
2022-10-23T04:37:08.185Z,4.90
2022-10-23T04:39:10.989Z,5.20
2022-10-23T04:41:13.945Z,5.00
2022-10-23T04:43:16.540Z,4.97
2022-10-23T04:45:19.165Z,4.97
2022-10-23T04:47:23.132Z,5.33
2022-10-23T04:49:26.042Z,5.50
2022-10-23T04:51:28.700Z,5.10
2022-10-23T04:53:31.423Z,5.23
2022-10-23T04:55:34.023Z,5.17
2022-10-23T04:57:37.005Z,5.70
2022-10-23T04:59:39.655Z,5.13
2022-10-23T05:01:42.326Z,5.00
2022-10-23T05:03:46.338Z,5.00
2022-10-23T05:05:49.337Z,5.07
2022-10-23T05:07:51.968Z,5.30
2022-10-23T05:09:54.643Z,5.77
2022-10-23T05:11:57.321Z,4.77
2022-10-23T05:14:00.280Z,4.83
2022-10-23T05:16:02.922Z,4.60
2022-10-23T05:18:09.320Z,5.23
2022-10-23T05:20:15.832Z,5.30
2022-10-23T05:22:19.039Z,5.20
2022-10-23T05:24:21.652Z,5.60
2022-10-23T05:26:24.272Z,4.90
2022-10-23T05:28:26.931Z,5.30
2022-10-23T05:30:29.967Z,4.63
2022-10-23T05:32:32.938Z,5.97
2022-10-23T05:34:36.540Z,4.73
2022-10-23T05:36:40.497Z,5.70
2022-10-23T05:38:43.515Z,5.90
2022-10-23T05:40:46.154Z,5.00
2022-10-23T05:42:49.003Z,5.10
2022-10-23T05:44:51.828Z,5.00
2022-10-23T05:46:54.788Z,5.00
2022-10-23T05:48:57.407Z,5.20
2022-10-23T05:51:04.350Z,4.77
2022-10-23T05:53:08.248Z,4.50
2022-10-23T05:55:11.265Z,5.23
2022-10-23T05:57:13.880Z,4.70
2022-10-23T05:59:20.430Z,4.60
2022-10-23T06:01:25.845Z,5.20
2022-10-23T06:03:28.986Z,5.10
2022-10-23T06:05:31.740Z,4.60
2022-10-23T06:07:35.899Z,5.10
2022-10-23T06:09:40.538Z,5.17
2022-10-23T06:11:43.205Z,5.20
2022-10-23T06:13:46.431Z,5.13
2022-10-23T06:15:49.196Z,5.13
2022-10-23T06:17:53.157Z,5.13
2022-10-23T06:20:00.854Z,5.40
2022-10-23T06:22:03.498Z,5.20
2022-10-23T06:24:07.091Z,5.17
2022-10-23T06:26:13.498Z,5.00
2022-10-23T06:28:18.340Z,4.90
2022-10-23T06:30:23.280Z,5.27
2022-10-23T06:32:25.968Z,5.27
2022-10-23T06:34:30.070Z,4.93
2022-10-23T06:36:32.790Z,5.70
2022-10-23T06:38:37.378Z,4.80
2022-10-23T06:40:40.023Z,5.30
2022-10-23T06:42:44.684Z,5.10
2022-10-23T06:44:47.552Z,5.33
2022-10-23T06:46:50.252Z,6.00
2022-10-23T06:48:53.718Z,5.53
2022-10-23T06:50:56.832Z,5.83
2022-10-23T06:52:59.424Z,5.53
2022-10-23T06:55:02.124Z,6.60
2022-10-23T06:57:04.755Z,5.80
2022-10-23T06:59:09.105Z,5.80
2022-10-23T07:01:13.269Z,7.20
2022-10-23T07:03:15.958Z,6.43
2022-10-23T07:05:19.296Z,6.63
2022-10-23T07:07:23.429Z,6.57
2022-10-23T07:09:26.107Z,6.90
2022-10-23T07:11:28.750Z,6.63
2022-10-23T07:13:31.392Z,6.63
2022-10-23T07:15:35.673Z,7.47
2022-10-23T07:17:38.282Z,7.83
2022-10-23T07:19:40.925Z,7.23
2022-10-23T07:21:43.542Z,7.40
2022-10-23T07:23:46.494Z,8.20
2022-10-23T07:25:49.167Z,7.67
2022-10-23T07:27:51.786Z,8.20
2022-10-23T07:29:54.723Z,7.80
2022-10-23T07:32:00.813Z,8.20
2022-10-23T07:34:03.459Z,8.13
2022-10-23T07:36:06.604Z,9.50
2022-10-23T07:38:09.225Z,8.73
2022-10-23T07:40:13.569Z,9.10
2022-10-23T07:42:16.210Z,8.47
2022-10-23T07:44:20.214Z,8.77
2022-10-23T07:46:24.684Z,10.00
2022-10-23T07:48:28.973Z,9.53
2022-10-23T07:50:31.623Z,9.40
2022-10-23T07:52:36.124Z,9.30
2022-10-23T07:54:38.910Z,9.17
2022-10-23T07:56:42.021Z,9.67
2022-10-23T07:58:44.715Z,10.07
2022-10-23T08:00:52.583Z,9.10
2022-10-23T08:02:55.183Z,10.20
2022-10-23T08:04:59.540Z,9.83
2022-10-23T08:07:02.206Z,9.47
2022-10-23T08:09:06.609Z,10.13
2022-10-23T08:11:11.464Z,9.67
2022-10-23T08:13:14.808Z,10.97
2022-10-23T08:15:17.520Z,10.40
2022-10-23T08:17:20.319Z,10.40
2022-10-23T08:19:23.228Z,10.50
2022-10-23T08:21:27.647Z,9.83
2022-10-23T08:23:30.448Z,10.97
2022-10-23T08:27:35.708Z,12.13
2022-10-23T08:29:38.773Z,10.70
2022-10-23T08:31:41.410Z,11.50
2022-10-23T08:33:44.082Z,12.47
2022-10-23T08:35:47.192Z,11.20
2022-10-23T08:37:51.625Z,11.67
2022-10-23T08:39:54.833Z,11.70
2022-10-23T08:41:57.514Z,10.63
2022-10-23T08:44:03.845Z,11.83
2022-10-23T08:46:09.511Z,11.20
2022-10-23T08:48:15.091Z,11.70
2022-10-23T08:50:21.790Z,11.40
2022-10-23T08:52:28.470Z,12.90
2022-10-23T08:54:54.187Z,12.83
2022-10-23T08:56:59.420Z,11.80
2022-10-23T08:59:07.788Z,12.67
2022-10-23T09:01:24.299Z,12.10
2022-10-23T09:03:27.557Z,12.57
2022-10-23T09:05:31.693Z,12.47
2022-10-23T09:07:40.926Z,13.17
2022-10-23T09:09:55.532Z,12.90
2022-10-23T09:12:01.245Z,14.00
2022-10-23T09:14:26.708Z,14.07
2022-10-23T09:16:38.907Z,12.60
2022-10-23T09:18:41.664Z,12.40
2022-10-23T09:20:45.875Z,13.10
2022-10-23T09:22:49.292Z,14.00
2022-10-23T09:24:53.957Z,13.07
2022-10-23T09:26:56.749Z,14.13
2022-10-23T09:29:07.419Z,13.43
2022-10-23T09:31:10.739Z,13.73
2022-10-23T09:33:15.329Z,14.77
2022-10-23T09:35:22.250Z,14.20
2022-10-23T09:37:26.169Z,14.43
2022-10-23T09:39:30.239Z,13.40
2022-10-23T09:41:36.783Z,13.50
2022-10-23T09:43:39.392Z,13.37
2022-10-23T09:45:43.652Z,14.80
2022-10-23T09:47:46.307Z,14.50
2022-10-23T09:49:49.812Z,13.87
2022-10-23T09:51:55.298Z,12.90
2022-10-23T09:53:58.992Z,13.47
2022-10-23T09:56:03.186Z,12.30
2022-10-23T09:58:07.173Z,13.60
2022-10-23T10:00:17.634Z,12.70
2022-10-23T10:02:25.590Z,12.80
2022-10-23T10:04:36.741Z,12.90
2022-10-23T10:06:39.431Z,12.00
2022-10-23T10:08:45.323Z,12.47
2022-10-23T10:10:50.576Z,12.77
2022-10-23T10:12:55.492Z,12.80
2022-10-23T10:15:05.512Z,12.70
2022-10-23T10:17:14.564Z,13.03
2022-10-23T10:19:23.901Z,12.60
2022-10-23T10:21:28.889Z,12.60
2022-10-23T10:23:36.217Z,12.17
2022-10-23T10:25:41.727Z,12.77
2022-10-23T10:27:48.686Z,12.47
2022-10-23T10:30:05.294Z,11.80
2022-10-23T10:32:32.214Z,11.73
2022-10-23T10:34:40.753Z,12.20
2022-10-23T10:36:48.372Z,10.63
2022-10-23T10:38:51.801Z,11.10
2022-10-23T10:41:07.795Z,11.27
2022-10-23T10:43:17.233Z,11.00
2022-10-23T10:45:21.004Z,10.10
2022-10-23T10:47:28.386Z,10.43
2022-10-23T10:49:34.945Z,10.67
2022-10-23T10:51:45.405Z,10.57
2022-10-23T10:53:56.049Z,11.07
2022-10-23T10:55:59.428Z,10.40
2022-10-23T10:58:04.369Z,10.50
2022-10-23T11:00:15.143Z,11.30
2022-10-23T11:02:24.909Z,11.57
2022-10-23T11:04:33.726Z,10.30
2022-10-23T11:06:36.845Z,9.50
2022-10-23T11:08:56.097Z,11.10
2022-10-23T11:11:03.270Z,11.40
2022-10-23T11:13:05.923Z,10.47
2022-10-23T11:15:13.905Z,9.77
2022-10-23T11:17:19.762Z,10.20
2022-10-23T11:19:24.766Z,10.57
2022-10-23T11:21:31.870Z,10.10
2022-10-23T11:23:46.273Z,10.27
2022-10-23T11:26:00.859Z,10.67
2022-10-23T11:28:14.339Z,10.07
2022-10-23T11:30:26.661Z,10.07
2022-10-23T11:32:45.420Z,9.60
2022-10-23T11:34:56.650Z,9.43
2022-10-23T11:37:01.923Z,9.87
2022-10-23T11:39:08.597Z,9.23
2022-10-23T11:41:21.061Z,9.43
2022-10-23T11:43:29.108Z,9.77
2022-10-23T11:45:34.173Z,9.43
2022-10-23T11:47:40.173Z,9.00
2022-10-23T11:49:43.243Z,9.77
2022-10-23T11:51:45.868Z,9.17
2022-10-23T11:53:50.154Z,8.60
2022-10-23T11:56:01.803Z,8.60
2022-10-23T11:58:16.428Z,8.83
2022-10-23T12:00:21.410Z,8.77
2022-10-23T12:02:32.479Z,9.50
2022-10-23T12:04:48.704Z,8.73
2022-10-23T12:06:54.601Z,8.67
2022-10-23T12:09:02.207Z,8.93
2022-10-23T12:11:07.892Z,8.60
2022-10-23T12:13:32.573Z,8.63
2022-10-23T12:15:35.774Z,8.80
2022-10-23T12:17:39.988Z,8.30
2022-10-23T12:19:47.957Z,8.50
2022-10-23T12:21:52.879Z,7.83
2022-10-23T12:24:12.035Z,8.33
2022-10-23T12:26:25.240Z,8.50
2022-10-23T12:28:32.330Z,7.67
2022-10-23T12:30:37.203Z,8.70
2022-10-23T12:32:52.378Z,8.07
2022-10-23T12:35:06.404Z,8.10
2022-10-23T12:37:19.868Z,7.67
2022-10-23T12:39:29.342Z,9.00
2022-10-23T12:41:35.560Z,8.60
2022-10-23T12:43:41.769Z,7.70
2022-10-23T12:45:44.478Z,7.87
2022-10-23T12:47:49.027Z,8.43
2022-10-23T12:49:52.733Z,7.80
2022-10-23T12:51:56.854Z,7.70
2022-10-23T12:53:59.532Z,7.87
2022-10-23T12:56:05.143Z,7.33
2022-10-23T12:58:22.486Z,7.50
2022-10-23T13:00:25.782Z,7.67
2022-10-23T13:02:29.586Z,7.90
2022-10-23T13:04:33.613Z,7.93
2022-10-23T13:06:36.364Z,7.30
2022-10-23T13:08:41.696Z,7.57
2022-10-23T13:10:44.363Z,7.57
2022-10-23T13:12:54.891Z,7.50
2022-10-23T13:15:00.993Z,7.80
2022-10-23T13:17:04.339Z,9.20
2022-10-23T13:19:07.201Z,7.70
2022-10-23T13:21:15.833Z,7.60
2022-10-23T13:23:19.568Z,7.83
2022-10-23T13:25:27.787Z,8.17
2022-10-23T13:27:33.801Z,8.33
2022-10-23T13:29:38.600Z,7.13
2022-10-23T13:31:41.926Z,7.90
2022-10-23T13:33:48.845Z,8.03
2022-10-23T13:35:58.368Z,7.13
2022-10-23T13:38:11.555Z,7.80
2022-10-23T13:40:23.299Z,7.93
2022-10-23T13:42:25.992Z,7.77
2022-10-23T13:44:28.986Z,8.40
2022-10-23T13:46:33.423Z,8.50
2022-10-23T13:48:36.332Z,8.17
2022-10-23T13:50:38.977Z,8.27
2022-10-23T13:52:42.113Z,9.73
2022-10-23T13:54:45.244Z,7.90
2022-10-23T13:56:47.945Z,9.00
2022-10-23T13:58:51.240Z,8.23
2022-10-23T14:00:54.323Z,8.27
2022-10-23T14:02:58.821Z,8.50
2022-10-23T14:05:01.499Z,8.20
2022-10-23T14:07:04.168Z,8.63
2022-10-23T14:09:07.794Z,8.37
2022-10-23T14:11:10.661Z,9.13
2022-10-23T14:13:13.400Z,9.27
2022-10-23T14:15:16.178Z,8.80
2022-10-23T14:17:19.234Z,8.77
2022-10-23T14:19:23.499Z,9.03
2022-10-23T14:21:26.173Z,9.27
2022-10-23T14:23:28.923Z,8.37
2022-10-23T14:25:31.918Z,9.13
2022-10-23T14:27:37.609Z,8.83
2022-10-23T14:29:41.344Z,9.40
2022-10-23T14:31:44.004Z,10.07
2022-10-23T14:33:47.115Z,9.37
2022-10-23T14:35:52.019Z,9.37
2022-10-23T14:37:54.657Z,10.90
2022-10-23T14:39:57.294Z,10.87
2022-10-23T14:42:00.914Z,9.47
2022-10-23T14:44:03.572Z,10.17
2022-10-23T14:46:11.394Z,10.70
2022-10-23T14:48:14.107Z,11.43
2022-10-23T14:50:17.299Z,10.87
2022-10-23T14:52:24.397Z,10.63
2022-10-23T14:54:29.269Z,10.73
2022-10-23T14:56:32.956Z,11.20
2022-10-23T14:58:37.759Z,11.73
2022-10-23T15:00:40.438Z,10.57
2022-10-23T15:02:43.332Z,10.93
2022-10-23T15:04:46.175Z,11.53
2022-10-23T15:06:49.219Z,11.30
2022-10-23T15:08:54.297Z,11.60
2022-10-23T15:10:56.928Z,11.13
2022-10-23T15:12:59.588Z,12.37
2022-10-23T15:15:02.593Z,11.50
2022-10-23T15:17:05.220Z,13.03
2022-10-23T15:19:09.873Z,11.67
2022-10-23T15:21:14.824Z,12.23
2022-10-23T15:23:17.767Z,13.50
2022-10-23T15:25:21.685Z,12.43
2022-10-23T15:27:24.379Z,12.90
2022-10-23T15:29:27.045Z,11.57
2022-10-23T15:31:42.565Z,11.70
2022-10-23T15:33:45.189Z,12.27
2022-10-23T15:35:47.879Z,12.00
2022-10-23T15:37:50.504Z,12.00
2022-10-23T15:39:56.134Z,12.20
2022-10-23T15:42:06.079Z,11.70
2022-10-23T15:44:09.149Z,12.70
2022-10-23T15:46:12.039Z,10.90
2022-10-23T15:48:16.004Z,10.93
2022-10-23T15:50:18.847Z,12.70
2022-10-23T15:52:21.541Z,12.40
2022-10-23T15:54:26.949Z,11.80
2022-10-23T15:56:32.268Z,11.80
2022-10-23T15:58:36.178Z,13.00
2022-10-23T16:00:39.542Z,11.70
2022-10-23T16:02:43.207Z,12.30
2022-10-23T16:04:46.396Z,12.00
2022-10-23T16:06:49.177Z,12.23
2022-10-23T16:08:51.839Z,11.73
2022-10-23T16:10:54.487Z,11.60
2022-10-23T16:12:57.451Z,12.30
2022-10-23T16:15:01.417Z,12.90
2022-10-23T16:17:04.132Z,11.50
2022-10-23T16:19:06.818Z,12.57
2022-10-23T16:21:16.899Z,12.33
2022-10-23T16:23:19.533Z,12.40
2022-10-23T16:25:22.261Z,12.20
2022-10-23T16:27:24.928Z,12.63
2022-10-23T16:29:29.405Z,12.53
2022-10-23T16:31:33.592Z,11.50
2022-10-23T16:33:36.243Z,12.30
2022-10-23T16:35:38.946Z,12.00
2022-10-23T16:37:42.018Z,14.30
2022-10-23T16:39:44.803Z,13.10
2022-10-23T16:41:47.424Z,12.30
2022-10-23T16:43:50.001Z,12.87
2022-10-23T16:46:01.983Z,13.17
2022-10-23T16:48:06.110Z,13.47
2022-10-23T16:50:09.102Z,12.20
2022-10-23T16:52:11.731Z,12.93
2022-10-23T16:54:15.507Z,13.33
2022-10-23T16:56:19.446Z,14.00
2022-10-23T16:58:22.130Z,13.40
2022-10-23T17:00:25.279Z,13.00
2022-10-23T17:02:28.336Z,13.47
2022-10-23T17:04:32.373Z,12.57
2022-10-23T17:06:37.054Z,13.13
2022-10-23T17:08:41.324Z,13.40
2022-10-23T17:10:44.048Z,13.20
2022-10-23T17:12:47.568Z,12.67
2022-10-23T17:14:50.267Z,12.40
2022-10-23T17:16:54.114Z,12.90
2022-10-23T17:18:56.854Z,11.97
2022-10-23T17:21:00.803Z,12.30
2022-10-23T17:23:04.739Z,13.60
2022-10-23T17:25:09.219Z,13.50
2022-10-23T17:27:11.862Z,13.30
2022-10-23T17:29:15.078Z,13.93
2022-10-23T17:31:19.915Z,12.70
2022-10-23T17:33:22.995Z,12.93
2022-10-23T17:35:25.645Z,12.97
2022-10-23T17:37:29.595Z,12.70
2022-10-23T17:39:32.207Z,13.37
2022-10-23T17:41:35.657Z,13.10
2022-10-23T17:43:38.379Z,12.60
2022-10-23T17:45:42.420Z,12.30
2022-10-23T17:47:45.037Z,12.70
2022-10-23T17:49:48.125Z,12.23
2022-10-23T17:51:52.010Z,12.33
2022-10-23T17:53:56.973Z,11.97
2022-10-23T17:56:02.168Z,12.73
2022-10-23T17:58:05.241Z,13.10
2022-10-23T18:00:08.601Z,13.50
2022-10-23T18:02:13.021Z,13.70
2022-10-23T18:04:15.880Z,12.43
2022-10-23T18:06:20.633Z,14.33
2022-10-23T18:08:24.305Z,13.73
2022-10-23T18:10:28.306Z,13.40
2022-10-23T18:12:30.951Z,13.20
2022-10-23T18:14:37.281Z,13.60
2022-10-23T18:16:40.439Z,13.10
2022-10-23T18:18:43.566Z,12.30
2022-10-23T18:20:46.214Z,11.40
2022-10-23T18:22:49.370Z,12.70
2022-10-23T18:24:52.055Z,13.10
2022-10-23T18:26:56.001Z,13.43
2022-10-23T18:28:59.399Z,11.80
2022-10-23T18:31:02.495Z,12.63
2022-10-23T18:33:05.267Z,12.87
2022-10-23T18:35:08.659Z,13.30
2022-10-23T18:37:11.282Z,13.30
2022-10-23T18:39:15.841Z,13.07
2022-10-23T18:41:19.558Z,13.60
2022-10-23T18:43:42.158Z,12.03
2022-10-23T18:45:46.327Z,13.70
2022-10-23T18:47:49.547Z,13.13
2022-10-23T18:49:52.161Z,12.60
2022-10-23T18:51:54.803Z,13.50
2022-10-23T18:54:01.296Z,12.40
2022-10-23T18:56:05.724Z,13.47
2022-10-23T18:58:08.944Z,13.30
2022-10-23T19:00:17.651Z,14.13
2022-10-23T19:02:21.492Z,14.30
2022-10-23T19:04:25.955Z,13.53
2022-10-23T19:06:28.655Z,14.07
2022-10-23T19:08:31.552Z,13.67
2022-10-23T19:10:34.997Z,14.40
2022-10-23T19:12:37.586Z,14.00
2022-10-23T19:14:40.844Z,15.97
2022-10-23T19:16:46.972Z,15.20
2022-10-23T19:18:53.994Z,16.00
2022-10-23T19:20:56.850Z,14.27
2022-10-23T19:22:59.585Z,13.83
2022-10-23T19:25:05.222Z,14.90
2022-10-23T19:27:08.695Z,14.40
2022-10-23T19:29:13.675Z,14.90
2022-10-23T19:31:16.736Z,14.70
2022-10-23T19:33:20.638Z,15.77
2022-10-23T19:35:24.241Z,15.60
2022-10-23T19:37:29.788Z,15.17
2022-10-23T19:39:32.448Z,15.83
2022-10-23T19:41:35.679Z,14.70
2022-10-23T19:43:38.755Z,14.70
2022-10-23T19:45:47.815Z,15.77
2022-10-23T19:47:50.543Z,15.63
2022-10-23T19:49:54.444Z,16.73
2022-10-23T19:51:57.353Z,15.53
2022-10-23T19:54:00.092Z,16.70
2022-10-23T19:56:03.821Z,16.17
2022-10-23T19:58:06.849Z,17.00
2022-10-23T20:00:10.369Z,15.23
2022-10-23T20:02:13.106Z,15.13
2022-10-23T20:04:15.892Z,15.60
2022-10-23T20:06:21.130Z,16.60
2022-10-23T20:08:23.746Z,17.07
2022-10-23T20:10:26.831Z,16.33
2022-10-23T20:12:30.061Z,17.03
2022-10-23T20:14:33.925Z,16.47
2022-10-23T20:16:38.564Z,16.23
2022-10-23T20:18:41.167Z,16.87
2022-10-23T20:20:43.889Z,15.60
2022-10-23T20:22:52.092Z,16.07
2022-10-23T20:24:57.361Z,15.30
2022-10-23T20:27:00.318Z,16.03
2022-10-23T20:29:02.959Z,15.10
2022-10-23T20:31:08.398Z,16.10
2022-10-23T20:33:11.136Z,16.53
2022-10-23T20:35:16.509Z,15.90
2022-10-23T20:37:19.166Z,15.53
2022-10-23T20:39:25.505Z,16.40
2022-10-23T20:41:29.400Z,15.33
2022-10-23T20:43:33.697Z,16.67
2022-10-23T20:45:42.189Z,16.47
2022-10-23T20:47:46.965Z,16.30
2022-10-23T20:49:50.687Z,16.50
2022-10-23T20:51:55.214Z,16.50
2022-10-23T20:53:58.616Z,18.20
2022-10-23T20:56:05.524Z,17.40
2022-10-23T20:58:08.233Z,17.30
2022-10-23T21:00:12.736Z,17.03
2022-10-23T21:02:15.482Z,17.97
2022-10-23T21:04:19.714Z,18.87
2022-10-23T21:06:22.384Z,17.83
2022-10-23T21:08:25.027Z,20.03
2022-10-23T21:10:28.058Z,18.97
2022-10-23T21:12:32.015Z,18.57
2022-10-23T21:14:34.736Z,18.40
2022-10-23T21:16:40.637Z,18.57
2022-10-23T21:18:46.453Z,19.10
2022-10-23T21:20:49.560Z,19.77
2022-10-23T21:22:54.192Z,18.70
2022-10-23T21:24:58.398Z,19.40
2022-10-23T21:27:02.164Z,20.30
2022-10-23T21:29:17.991Z,20.73
2022-10-23T21:31:22.074Z,19.93
2022-10-23T21:33:26.032Z,20.20
2022-10-23T21:35:30.083Z,20.57
2022-10-23T21:37:32.843Z,19.73
2022-10-23T21:39:35.503Z,20.10
2022-10-23T21:41:38.143Z,20.13
2022-10-23T21:43:41.134Z,19.00
2022-10-23T21:45:45.069Z,19.77
2022-10-23T21:47:47.744Z,20.33
2022-10-23T21:49:50.433Z,20.97
2022-10-23T21:51:54.905Z,19.60
2022-10-23T21:53:58.132Z,20.73
2022-10-23T21:56:02.577Z,19.00
2022-10-23T21:58:05.229Z,21.00
2022-10-23T22:00:09.256Z,20.10
2022-10-23T22:02:13.349Z,19.43
2022-10-23T22:04:18.893Z,19.97
2022-10-23T22:06:22.912Z,19.73
2022-10-23T22:08:25.991Z,19.60
2022-10-23T22:10:29.077Z,19.07
2022-10-23T22:12:31.691Z,19.50
2022-10-23T22:14:34.355Z,19.00
2022-10-23T22:16:37.521Z,19.13
2022-10-23T22:18:41.708Z,18.97
2022-10-23T22:20:44.428Z,19.10
2022-10-23T22:22:47.064Z,19.50
2022-10-23T22:24:50.128Z,19.70
2022-10-23T22:26:54.117Z,17.97
2022-10-23T22:28:58.923Z,18.70
2022-10-23T22:31:02.284Z,18.20
2022-10-23T22:33:04.988Z,17.30
2022-10-23T22:35:09.213Z,18.70
2022-10-23T22:37:12.117Z,19.40
2022-10-23T22:39:14.792Z,17.97
2022-10-23T22:41:17.584Z,20.20
2022-10-23T22:43:20.189Z,18.90
2022-10-23T22:45:23.102Z,18.67
2022-10-23T22:47:25.710Z,18.37
2022-10-23T22:49:28.347Z,17.33
2022-10-23T22:51:32.373Z,17.40
2022-10-23T22:53:35.554Z,16.63
2022-10-23T22:55:42.295Z,18.20
2022-10-23T22:57:45.215Z,17.80
2022-10-23T22:59:48.083Z,16.97
2022-10-23T23:01:51.210Z,17.90
2022-10-23T23:03:54.067Z,17.80
2022-10-23T23:05:56.675Z,17.27
2022-10-23T23:08:00.635Z,16.83
2022-10-23T23:10:03.314Z,15.93
2022-10-23T23:12:06.193Z,17.80
2022-10-23T23:14:08.904Z,17.37
2022-10-23T23:16:18.469Z,17.60
2022-10-23T23:18:21.147Z,17.87
2022-10-23T23:20:23.782Z,18.17
2022-10-23T23:24:32.069Z,17.33
2022-10-23T23:26:34.690Z,17.33
2022-10-23T23:28:37.335Z,16.67
2022-10-23T23:30:40.111Z,16.73
2022-10-23T23:32:43.347Z,18.50
2022-10-23T23:34:46.136Z,16.83
2022-10-23T23:36:48.779Z,16.20
2022-10-23T23:38:51.881Z,17.37
2022-10-23T23:40:55.883Z,17.30
2022-10-23T23:42:58.506Z,17.70
2022-10-23T23:45:03.159Z,16.77
2022-10-23T23:47:16.574Z,16.33
2022-10-23T23:49:19.286Z,16.17
2022-10-23T23:51:22.924Z,16.13
2022-10-23T23:53:25.877Z,17.70
2022-10-23T23:55:28.483Z,17.57
2022-10-23T23:57:32.383Z,16.60
2022-10-23T23:59:38.378Z,16.83
